TPC178 KCOS-KOAK
Flight info
| Callsign | TPC178 |
|---|---|
| Flight time | N/A |
| Altitude | 40000 |
| Route | DRAKE V83 PUB HBU J28 MLF KATTS RPARK OAKES3 |
| Aircraft | C700/M-SBDGHM1RWXY/LB2 |
Departure
| Time | 2026-04-25 23:30 |
|---|---|
| Airport | City of Colorado Springs Municipal Airport (KCOS) |
Arrival
| Time | N/A |
|---|---|
| Airport | San Francisco Bay Oakland International Airport (KOAK) |
| Time | Latitude | Longitude | Altitude | Speed | Heading |
|---|---|---|---|---|---|
| 2026-04-25 23:16 | 38.82103 | -104.70920 | 6188 ft | 0 kts | 219° |
| 2026-04-25 23:23 | 38.82064 | -104.70920 | 6188 ft | 12 kts | 157° |
| 2026-04-25 23:23 | 38.81993 | -104.70850 | 6187 ft | 13 kts | 133° |
| 2026-04-25 23:23 | 38.81927 | -104.70768 | 6188 ft | 13 kts | 143° |
| 2026-04-25 23:24 | 38.81856 | -104.70695 | 6188 ft | 13 kts | 138° |
| 2026-04-25 23:24 | 38.81790 | -104.70611 | 6188 ft | 13 kts | 135° |
| 2026-04-25 23:24 | 38.81724 | -104.70528 | 6188 ft | 14 kts | 133° |
| 2026-04-25 23:24 | 38.81643 | -104.70424 | 6188 ft | 17 kts | 135° |
| 2026-04-25 23:25 | 38.81559 | -104.70318 | 6188 ft | 17 kts | 134° |
| 2026-04-25 23:25 | 38.81478 | -104.70212 | 6188 ft | 17 kts | 135° |
| 2026-04-25 23:25 | 38.81396 | -104.70105 | 6188 ft | 17 kts | 135° |
| 2026-04-25 23:25 | 38.81313 | -104.70002 | 6188 ft | 17 kts | 135° |
| 2026-04-25 23:26 | 38.81228 | -104.69896 | 6188 ft | 17 kts | 135° |
| 2026-04-25 23:26 | 38.81144 | -104.69789 | 6188 ft | 17 kts | 135° |
| 2026-04-25 23:26 | 38.81062 | -104.69683 | 6188 ft | 17 kts | 135° |
| 2026-04-25 23:26 | 38.80981 | -104.69576 | 6188 ft | 17 kts | 134° |
| 2026-04-25 23:27 | 38.80897 | -104.69476 | 6188 ft | 16 kts | 137° |
| 2026-04-25 23:27 | 38.80849 | -104.69357 | 6188 ft | 17 kts | 71° |
| 2026-04-25 23:27 | 38.80922 | -104.69235 | 6188 ft | 18 kts | 43° |
| 2026-04-25 23:27 | 38.81013 | -104.69118 | 6188 ft | 19 kts | 46° |
| 2026-04-25 23:28 | 38.81108 | -104.68991 | 6188 ft | 20 kts | 46° |
| 2026-04-25 23:28 | 38.81211 | -104.68862 | 6188 ft | 21 kts | 43° |
| 2026-04-25 23:28 | 38.81327 | -104.68783 | 6188 ft | 20 kts | 4° |
| 2026-04-25 23:28 | 38.81467 | -104.68791 | 6189 ft | 21 kts | 1° |
| 2026-04-25 23:29 | 38.81578 | -104.68768 | 6189 ft | 13 kts | 39° |
| 2026-04-25 23:29 | 38.81598 | -104.68661 | 6190 ft | 12 kts | 92° |
| 2026-04-25 23:29 | 38.81564 | -104.68578 | 6191 ft | 11 kts | 162° |
| 2026-04-25 23:29 | 38.81385 | -104.68574 | 6189 ft | 64 kts | 180° |
| 2026-04-25 23:30 | 38.80638 | -104.68569 | 6230 ft | 144 kts | 181° |
| 2026-04-25 23:30 | 38.79441 | -104.68583 | 6732 ft | 198 kts | 180° |
| 2026-04-25 23:30 | 38.78013 | -104.68601 | 8035 ft | 211 kts | 179° |
| 2026-04-25 23:30 | 38.76515 | -104.68664 | 9378 ft | 225 kts | 187° |
| 2026-04-25 23:31 | 38.75076 | -104.69620 | 10328 ft | 255 kts | 224° |
| 2026-04-25 23:31 | 38.74249 | -104.71756 | 11283 ft | 287 kts | 258° |
| 2026-04-25 23:31 | 38.74192 | -104.74404 | 12562 ft | 302 kts | 270° |
| 2026-04-25 23:31 | 38.74260 | -104.77070 | 14351 ft | 299 kts | 268° |
| 2026-04-25 23:32 | 38.74151 | -104.79763 | 15717 ft | 307 kts | 262° |
| 2026-04-25 23:32 | 38.73777 | -104.82478 | 17117 ft | 313 kts | 257° |
| 2026-04-25 23:32 | 38.73377 | -104.85124 | 18358 ft | 320 kts | 259° |
| 2026-04-25 23:32 | 38.73048 | -104.87926 | 19567 ft | 323 kts | 261° |
| 2026-04-25 23:33 | 38.72744 | -104.90787 | 20745 ft | 325 kts | 261° |
| 2026-04-25 23:33 | 38.72400 | -104.93680 | 21778 ft | 330 kts | 261° |
| 2026-04-25 23:33 | 38.72036 | -104.96592 | 22941 ft | 332 kts | 261° |
| 2026-04-25 23:33 | 38.71681 | -104.99535 | 23959 ft | 336 kts | 261° |
| 2026-04-25 23:34 | 38.71326 | -105.02509 | 24873 ft | 338 kts | 261° |
| 2026-04-25 23:34 | 38.70967 | -105.05494 | 25812 ft | 340 kts | 261° |
| 2026-04-25 23:34 | 38.70602 | -105.08504 | 26713 ft | 343 kts | 261° |
| 2026-04-25 23:34 | 38.70232 | -105.11554 | 27599 ft | 346 kts | 261° |
| 2026-04-25 23:35 | 38.69866 | -105.14572 | 28499 ft | 349 kts | 261° |
| 2026-04-25 23:35 | 38.69489 | -105.17663 | 29377 ft | 352 kts | 261° |
| 2026-04-25 23:35 | 38.69107 | -105.20784 | 30199 ft | 355 kts | 261° |
| 2026-04-25 23:35 | 38.68723 | -105.23925 | 30936 ft | 358 kts | 261° |
| 2026-04-25 23:36 | 38.68337 | -105.27081 | 31680 ft | 360 kts | 261° |
| 2026-04-25 23:36 | 38.67946 | -105.30258 | 32332 ft | 363 kts | 261° |
| 2026-04-25 23:36 | 38.67550 | -105.33468 | 32949 ft | 366 kts | 261° |
| 2026-04-25 23:36 | 38.67151 | -105.36699 | 33570 ft | 368 kts | 261° |
| 2026-04-25 23:37 | 38.66748 | -105.39960 | 34108 ft | 371 kts | 261° |
| 2026-04-25 23:37 | 38.66347 | -105.43189 | 34571 ft | 374 kts | 261° |
| 2026-04-25 23:37 | 38.65935 | -105.46494 | 35019 ft | 377 kts | 261° |
| 2026-04-25 23:37 | 38.65518 | -105.49841 | 35489 ft | 379 kts | 261° |
| 2026-04-25 23:38 | 38.65102 | -105.53169 | 36075 ft | 377 kts | 261° |
| 2026-04-25 23:38 | 38.64693 | -105.56433 | 36677 ft | 375 kts | 261° |
| 2026-04-25 23:38 | 38.64278 | -105.59736 | 37162 ft | 375 kts | 261° |
| 2026-04-25 23:38 | 38.63863 | -105.63035 | 37674 ft | 374 kts | 261° |
| 2026-04-25 23:39 | 38.63448 | -105.66333 | 38124 ft | 373 kts | 261° |
| 2026-04-25 23:39 | 38.63038 | -105.69568 | 38504 ft | 373 kts | 261° |
| 2026-04-25 23:39 | 38.62623 | -105.72843 | 38833 ft | 372 kts | 261° |
| 2026-04-25 23:39 | 38.62207 | -105.76114 | 39109 ft | 373 kts | 261° |
| 2026-04-25 23:40 | 38.61790 | -105.79390 | 39382 ft | 374 kts | 261° |
| 2026-04-25 23:40 | 38.61371 | -105.82676 | 39650 ft | 375 kts | 261° |
| 2026-04-25 23:40 | 38.60947 | -105.85983 | 39692 ft | 380 kts | 261° |
| 2026-04-25 23:41 | 38.60081 | -105.92755 | 39694 ft | 390 kts | 261° |
| 2026-04-25 23:41 | 38.59637 | -105.96185 | 39875 ft | 389 kts | 261° |
| 2026-04-25 23:41 | 38.59195 | -105.99589 | 39859 ft | 387 kts | 261° |
| 2026-04-25 23:42 | 38.58317 | -106.06383 | 39873 ft | 394 kts | 261° |
| 2026-04-25 23:42 | 38.57414 | -106.13311 | 39879 ft | 391 kts | 261° |
| 2026-04-25 23:43 | 38.56526 | -106.20101 | 39849 ft | 390 kts | 261° |
| 2026-04-25 23:43 | 38.55620 | -106.26990 | 39836 ft | 395 kts | 261° |
| 2026-04-25 23:44 | 38.54703 | -106.33939 | 39808 ft | 394 kts | 261° |
| 2026-04-25 23:44 | 38.53796 | -106.40769 | 39792 ft | 391 kts | 261° |
| 2026-04-25 23:45 | 38.52882 | -106.47628 | 39768 ft | 393 kts | 261° |
| 2026-04-25 23:45 | 38.51961 | -106.54500 | 39773 ft | 395 kts | 261° |
| 2026-04-25 23:46 | 38.51030 | -106.61420 | 39763 ft | 394 kts | 261° |
| 2026-04-25 23:46 | 38.50099 | -106.68309 | 39776 ft | 392 kts | 261° |
| 2026-04-25 23:47 | 38.49174 | -106.75118 | 39778 ft | 389 kts | 260° |
| 2026-04-25 23:47 | 38.48246 | -106.81920 | 39779 ft | 390 kts | 260° |
| 2026-04-25 23:48 | 38.47309 | -106.88767 | 39919 ft | 393 kts | 260° |
| 2026-04-25 23:48 | 38.46361 | -106.95651 | 39920 ft | 392 kts | 260° |
| 2026-04-25 23:49 | 38.45444 | -107.02454 | 39903 ft | 389 kts | 262° |
| 2026-04-25 23:49 | 38.45246 | -107.09363 | 39886 ft | 390 kts | 269° |
| 2026-04-25 23:50 | 38.45275 | -107.16294 | 39861 ft | 389 kts | 268° |
| 2026-04-25 23:50 | 38.45308 | -107.23150 | 39825 ft | 387 kts | 269° |
| 2026-04-25 23:51 | 38.45335 | -107.30059 | 39802 ft | 390 kts | 269° |
| 2026-04-25 23:51 | 38.45358 | -107.37021 | 39757 ft | 393 kts | 269° |
| 2026-04-25 23:52 | 38.45377 | -107.43990 | 39757 ft | 391 kts | 268° |
| 2026-04-25 23:52 | 38.45394 | -107.50900 | 39738 ft | 389 kts | 268° |
| 2026-04-25 23:53 | 38.45403 | -107.57815 | 39730 ft | 390 kts | 268° |
| 2026-04-25 23:53 | 38.45411 | -107.64704 | 39740 ft | 390 kts | 268° |
| 2026-04-25 23:54 | 38.45414 | -107.71655 | 39712 ft | 390 kts | 268° |
| 2026-04-25 23:54 | 38.45413 | -107.78556 | 39690 ft | 391 kts | 268° |
| 2026-04-25 23:54 | 38.45410 | -107.82039 | 39850 ft | 391 kts | 268° |
| 2026-04-25 23:55 | 38.45407 | -107.85510 | 39852 ft | 392 kts | 268° |
| 2026-04-25 23:55 | 38.45398 | -107.92430 | 39854 ft | 392 kts | 268° |
| 2026-04-25 23:56 | 38.45385 | -107.99391 | 39847 ft | 392 kts | 268° |
| 2026-04-25 23:56 | 38.45367 | -108.06348 | 39813 ft | 392 kts | 268° |
| 2026-04-25 23:57 | 38.45346 | -108.13278 | 39780 ft | 393 kts | 268° |
| 2026-04-25 23:57 | 38.45320 | -108.20255 | 39751 ft | 391 kts | 268° |
| 2026-04-25 23:58 | 38.45290 | -108.27169 | 39708 ft | 388 kts | 268° |
| 2026-04-25 23:58 | 38.45256 | -108.34046 | 39673 ft | 391 kts | 268° |
| 2026-04-25 23:59 | 38.45219 | -108.41018 | 39675 ft | 394 kts | 268° |
| 2026-04-25 23:59 | 38.45176 | -108.47980 | 39659 ft | 393 kts | 268° |
| 2026-04-26 00:00 | 38.45129 | -108.54961 | 39668 ft | 394 kts | 268° |
| 2026-04-26 00:00 | 38.45079 | -108.61981 | 39669 ft | 396 kts | 268° |
| 2026-04-26 00:01 | 38.45025 | -108.68965 | 39671 ft | 394 kts | 268° |
| 2026-04-26 00:01 | 38.44967 | -108.75915 | 39665 ft | 392 kts | 268° |
| 2026-04-26 00:02 | 38.44903 | -108.82859 | 39670 ft | 390 kts | 267° |
| 2026-04-26 00:02 | 38.44838 | -108.89787 | 39671 ft | 394 kts | 268° |
| 2026-04-26 00:03 | 38.44766 | -108.96822 | 39675 ft | 396 kts | 268° |
| 2026-04-26 00:03 | 38.44692 | -109.03812 | 39672 ft | 393 kts | 267° |
| 2026-04-26 00:04 | 38.44611 | -109.10769 | 39670 ft | 391 kts | 267° |
| 2026-04-26 00:04 | 38.44543 | -109.16557 | 39670 ft | 393 kts | 267° |
| 2026-04-26 00:05 | 38.44456 | -109.23585 | 39668 ft | 397 kts | 268° |
| 2026-04-26 00:05 | 38.44369 | -109.30548 | 39656 ft | 392 kts | 267° |
| 2026-04-26 00:06 | 38.44267 | -109.37501 | 39656 ft | 392 kts | 267° |
| 2026-04-26 00:06 | 38.44173 | -109.44457 | 39651 ft | 393 kts | 267° |
| 2026-04-26 00:07 | 38.44067 | -109.51438 | 39648 ft | 395 kts | 267° |
| 2026-04-26 00:07 | 38.43961 | -109.58459 | 39636 ft | 395 kts | 267° |
| 2026-04-26 00:08 | 38.43848 | -109.65437 | 39640 ft | 396 kts | 266° |
| 2026-04-26 00:08 | 38.43731 | -109.72491 | 39629 ft | 398 kts | 266° |
| 2026-04-26 00:09 | 38.43610 | -109.79554 | 39633 ft | 397 kts | 266° |
| 2026-04-26 00:09 | 38.43485 | -109.86566 | 39634 ft | 394 kts | 266° |
| 2026-04-26 00:10 | 38.43357 | -109.93546 | 39632 ft | 397 kts | 266° |
| 2026-04-26 00:10 | 38.43221 | -110.00601 | 39635 ft | 398 kts | 266° |
| 2026-04-26 00:11 | 38.43084 | -110.07674 | 39638 ft | 397 kts | 266° |
| 2026-04-26 00:11 | 38.42942 | -110.14680 | 39627 ft | 396 kts | 266° |
| 2026-04-26 00:12 | 38.42796 | -110.21744 | 39646 ft | 399 kts | 266° |
| 2026-04-26 00:12 | 38.42643 | -110.28835 | 39649 ft | 400 kts | 266° |
| 2026-04-26 00:13 | 38.42489 | -110.35915 | 39656 ft | 398 kts | 266° |
| 2026-04-26 00:13 | 38.42329 | -110.42929 | 39654 ft | 397 kts | 266° |
| 2026-04-26 00:14 | 38.42167 | -110.49961 | 39662 ft | 397 kts | 266° |
| 2026-04-26 00:14 | 38.41997 | -110.57057 | 39665 ft | 401 kts | 266° |
| 2026-04-26 00:15 | 38.41824 | -110.64183 | 39786 ft | 402 kts | 266° |
| 2026-04-26 00:15 | 38.41648 | -110.71295 | 39781 ft | 399 kts | 266° |
| 2026-04-26 00:16 | 38.41558 | -110.78350 | 39779 ft | 397 kts | 266° |
| 2026-04-26 00:16 | 38.41443 | -110.85436 | 39774 ft | 402 kts | 266° |
| 2026-04-26 00:17 | 38.41330 | -110.92523 | 39757 ft | 401 kts | 266° |
| 2026-04-26 00:17 | 38.41212 | -110.99607 | 39735 ft | 397 kts | 266° |
| 2026-04-26 00:18 | 38.41087 | -111.06635 | 39733 ft | 399 kts | 266° |
| 2026-04-26 00:18 | 38.40961 | -111.13779 | 39722 ft | 402 kts | 266° |
| 2026-04-26 00:19 | 38.40828 | -111.20882 | 39739 ft | 401 kts | 266° |
| 2026-04-26 00:19 | 38.40692 | -111.27980 | 39758 ft | 398 kts | 265° |
| 2026-04-26 00:20 | 38.40553 | -111.35002 | 39756 ft | 398 kts | 265° |
| 2026-04-26 00:20 | 38.40409 | -111.42060 | 39770 ft | 397 kts | 266° |
| 2026-04-26 00:21 | 38.40263 | -111.49097 | 39776 ft | 398 kts | 265° |
| 2026-04-26 00:21 | 38.40108 | -111.56230 | 39794 ft | 403 kts | 266° |
| 2026-04-26 00:22 | 38.39954 | -111.63290 | 39788 ft | 397 kts | 265° |
| 2026-04-26 00:22 | 38.39790 | -111.70345 | 39775 ft | 397 kts | 265° |
| 2026-04-26 00:23 | 38.39626 | -111.77412 | 39804 ft | 400 kts | 265° |
| 2026-04-26 00:23 | 38.39454 | -111.84533 | 39785 ft | 406 kts | 265° |
| 2026-04-26 00:24 | 38.39279 | -111.91723 | 39776 ft | 403 kts | 265° |
| 2026-04-26 00:24 | 38.39099 | -111.98817 | 39765 ft | 400 kts | 265° |
| 2026-04-26 00:25 | 38.38916 | -112.05923 | 39771 ft | 404 kts | 265° |
| 2026-04-26 00:25 | 38.38725 | -112.13121 | 39760 ft | 405 kts | 265° |
| 2026-04-26 00:26 | 38.38534 | -112.20238 | 39748 ft | 401 kts | 265° |
| 2026-04-26 00:26 | 38.38336 | -112.27313 | 39734 ft | 399 kts | 265° |
| 2026-04-26 00:27 | 38.38135 | -112.34449 | 39749 ft | 405 kts | 265° |
| 2026-04-26 00:27 | 38.37931 | -112.41572 | 39741 ft | 402 kts | 265° |
| 2026-04-26 00:28 | 38.37720 | -112.48686 | 39733 ft | 400 kts | 265° |
| 2026-04-26 00:28 | 38.37505 | -112.55831 | 39738 ft | 406 kts | 265° |
| 2026-04-26 00:29 | 38.37286 | -112.63020 | 39730 ft | 404 kts | 265° |
| 2026-04-26 00:29 | 38.37063 | -112.70139 | 39736 ft | 401 kts | 265° |